createdAt,value
2019-05-30T00:00:08.884Z,52.00
2019-05-30T00:00:53.972Z,52.61
2019-05-30T00:01:54.158Z,51.48
2019-05-30T00:02:53.929Z,51.39
2019-05-30T00:03:53.967Z,51.69
2019-05-30T00:04:54.011Z,52.00
2019-05-30T00:05:54.189Z,51.00
2019-05-30T00:06:54.156Z,51.92
2019-05-30T00:07:54.041Z,51.81
2019-05-30T00:08:52.770Z,52.73
2019-05-30T00:09:52.792Z,52.83
2019-05-30T00:10:52.743Z,51.72
2019-05-30T00:11:52.738Z,52.73
2019-05-30T00:12:52.719Z,52.22
2019-05-30T00:13:52.708Z,52.12
2019-05-30T00:14:52.705Z,52.04
2019-05-30T00:15:52.705Z,53.57
2019-05-30T00:16:52.684Z,52.83
2019-05-30T00:17:52.673Z,52.22
2019-05-30T00:18:52.655Z,52.73
2019-05-30T00:19:52.647Z,52.12
2019-05-30T00:20:52.642Z,52.53
2019-05-30T00:21:52.625Z,53.24
2019-05-30T00:22:52.616Z,52.63
2019-05-30T00:23:52.597Z,51.92
2019-05-30T00:24:52.596Z,53.04
2019-05-30T00:25:52.574Z,52.02
2019-05-30T00:26:52.574Z,53.44
2019-05-30T00:27:52.549Z,52.43
2019-05-30T00:28:52.540Z,51.72
2019-05-30T00:29:52.529Z,51.94
2019-05-30T00:30:52.518Z,54.08
2019-05-30T00:31:52.506Z,53.27
2019-05-30T00:32:52.495Z,53.88
2019-05-30T00:33:52.492Z,53.88
2019-05-30T00:34:52.470Z,53.16
2019-05-30T00:35:52.470Z,53.57
2019-05-30T00:36:52.446Z,53.98
2019-05-30T00:37:52.444Z,53.67
2019-05-30T00:38:52.426Z,53.57
2019-05-30T00:39:52.413Z,54.39
2019-05-30T00:40:52.402Z,53.47
2019-05-30T00:41:52.390Z,53.06
2019-05-30T00:42:52.384Z,53.16
2019-05-30T00:43:52.383Z,54.18
2019-05-30T00:44:52.370Z,54.08
2019-05-30T00:45:52.343Z,54.90
2019-05-30T00:46:52.371Z,54.28
2019-05-30T00:47:52.332Z,53.67
2019-05-30T00:48:52.312Z,53.34
2019-05-30T00:49:52.350Z,52.63
2019-05-30T00:51:00.436Z,54.26
2019-05-30T00:52:33.958Z,53.24
2019-05-30T00:53:33.936Z,53.34
2019-05-30T00:55:15.587Z,53.88
2019-05-30T00:56:15.574Z,53.85
2019-05-30T00:57:15.567Z,53.78
2019-05-30T00:58:15.552Z,53.37
2019-05-30T00:59:15.546Z,53.14
2019-05-30T01:00:15.537Z,52.76
2019-05-30T01:01:15.527Z,51.74
2019-05-30T01:02:15.508Z,53.09
2019-05-30T01:03:15.494Z,51.76
2019-05-30T01:04:22.687Z,53.11
2019-05-30T01:05:58.791Z,54.24
2019-05-30T01:06:58.929Z,54.24
2019-05-30T01:07:58.845Z,54.13
2019-05-30T01:08:59.094Z,54.03
2019-05-30T01:09:59.156Z,54.33
2019-05-30T01:10:58.994Z,53.75
2019-05-30T01:11:59.129Z,55.05
2019-05-30T01:12:59.933Z,55.07
2019-05-30T01:13:58.964Z,53.85
2019-05-30T01:14:58.930Z,53.64
2019-05-30T01:15:58.964Z,54.36
2019-05-30T01:16:59.002Z,55.30
2019-05-30T01:17:59.032Z,54.49
2019-05-30T01:18:59.057Z,55.71
2019-05-30T01:19:59.069Z,55.61
2019-05-30T01:20:59.137Z,56.53
2019-05-30T01:21:59.137Z,55.89
2019-05-30T01:22:59.160Z,54.39
2019-05-30T01:23:59.286Z,54.08
2019-05-30T01:24:59.168Z,55.51
2019-05-30T01:25:59.303Z,55.71
2019-05-30T01:26:59.188Z,55.71
2019-05-30T01:27:59.466Z,56.23
2019-05-30T01:28:59.329Z,55.30
2019-05-30T01:29:59.378Z,56.02
2019-05-30T01:31:03.151Z,56.32
2019-05-30T01:31:59.439Z,55.51
2019-05-30T01:32:59.562Z,56.73
2019-05-30T01:33:59.453Z,58.06
2019-05-30T01:34:59.593Z,56.43
2019-05-30T01:35:59.435Z,56.94
2019-05-30T01:36:59.812Z,56.71
2019-05-30T01:37:59.570Z,55.89
2019-05-30T01:38:59.340Z,55.28
2019-05-30T01:39:58.274Z,55.28
2019-05-30T01:40:58.269Z,55.41
2019-05-30T01:41:58.247Z,56.10
2019-05-30T01:42:58.231Z,56.10
2019-05-30T01:43:58.225Z,55.07
2019-05-30T01:44:58.224Z,55.48
2019-05-30T01:45:58.217Z,55.89
2019-05-30T01:46:58.262Z,55.58
2019-05-30T01:47:58.254Z,55.28
2019-05-30T01:48:58.231Z,56.20
2019-05-30T01:49:58.322Z,55.48
2019-05-30T01:50:58.344Z,55.38
2019-05-30T01:51:58.399Z,55.79
2019-05-30T01:52:58.469Z,54.87
2019-05-30T01:53:58.378Z,55.76
2019-05-30T01:54:58.544Z,56.17
2019-05-30T01:55:58.549Z,55.28
2019-05-30T01:56:58.460Z,55.28
2019-05-30T01:57:58.699Z,55.69
2019-05-30T01:58:58.655Z,55.38
2019-05-30T01:59:58.696Z,55.18
2019-05-30T02:00:58.744Z,54.08
2019-05-30T02:01:58.903Z,55.82
2019-05-30T02:02:58.882Z,57.34
2019-05-30T02:03:59.093Z,55.71
2019-05-30T02:04:58.839Z,55.51
2019-05-30T02:05:58.911Z,56.12
2019-05-30T02:06:59.232Z,57.34
2019-05-30T02:07:59.013Z,57.34
2019-05-30T02:08:59.025Z,56.12
2019-05-30T02:09:59.076Z,56.84
2019-05-30T02:10:59.121Z,55.82
2019-05-30T02:11:59.226Z,56.94
2019-05-30T02:12:59.213Z,55.91
2019-05-30T02:13:57.888Z,56.43
2019-05-30T02:14:57.899Z,55.41
2019-05-30T02:15:57.868Z,55.61
2019-05-30T02:16:57.862Z,56.32
2019-05-30T02:17:57.861Z,55.91
2019-05-30T02:18:57.836Z,55.41
2019-05-30T02:19:57.828Z,56.12
2019-05-30T02:20:57.813Z,56.66
2019-05-30T02:21:57.831Z,58.39
2019-05-30T02:22:57.797Z,57.45
2019-05-30T02:23:57.782Z,57.27
2019-05-30T02:24:57.763Z,57.14
2019-05-30T02:25:57.767Z,55.54
2019-05-30T02:26:57.745Z,55.94
2019-05-30T02:27:57.733Z,56.76
2019-05-30T02:28:57.739Z,57.50
2019-05-30T02:29:57.740Z,57.37
2019-05-30T02:30:57.712Z,57.37
2019-05-30T02:31:57.724Z,57.88
2019-05-30T02:32:57.689Z,57.24
2019-05-30T02:33:57.703Z,56.73
2019-05-30T02:34:57.702Z,57.75
2019-05-30T02:35:57.684Z,56.66
2019-05-30T02:36:57.650Z,57.88
2019-05-30T02:37:57.659Z,57.17
2019-05-30T02:38:57.637Z,57.24
2019-05-30T02:40:02.468Z,56.94
2019-05-30T02:40:58.604Z,57.24
2019-05-30T02:41:57.592Z,56.84
2019-05-30T02:42:57.583Z,56.32
2019-05-30T02:43:57.598Z,57.45
2019-05-30T02:44:57.556Z,57.24
2019-05-30T02:45:57.549Z,56.43
2019-05-30T02:46:57.546Z,57.34
2019-05-30T02:47:57.539Z,55.30
2019-05-30T02:48:59.587Z,56.12
2019-05-30T02:49:57.513Z,56.02
2019-05-30T02:50:57.525Z,56.63
2019-05-30T02:51:57.488Z,56.84
2019-05-30T02:52:57.476Z,56.04
2019-05-30T02:53:57.497Z,56.43
2019-05-30T02:54:57.450Z,57.24
2019-05-30T02:55:57.429Z,55.91
2019-05-30T02:56:57.422Z,55.84
2019-05-30T02:57:57.418Z,57.27
2019-05-30T02:58:57.411Z,58.42
2019-05-30T02:59:57.421Z,57.40
2019-05-30T03:00:57.397Z,57.50
2019-05-30T03:02:01.979Z,57.91
2019-05-30T03:02:58.378Z,57.37
2019-05-30T03:03:57.383Z,57.17
2019-05-30T03:04:57.338Z,56.04
2019-05-30T03:05:57.360Z,56.76
2019-05-30T03:06:57.318Z,56.48
2019-05-30T03:07:57.306Z,56.58
2019-05-30T03:08:57.299Z,58.01
2019-05-30T03:09:57.287Z,57.91
2019-05-30T03:10:57.289Z,57.22
2019-05-30T03:11:57.284Z,57.93
2019-05-30T03:12:57.245Z,58.04
2019-05-30T03:13:57.234Z,57.22
2019-05-30T03:14:57.235Z,58.96
2019-05-30T03:15:57.221Z,57.53
2019-05-30T03:16:57.267Z,57.12
2019-05-30T03:17:57.224Z,58.98
2019-05-30T03:18:57.184Z,59.60
2019-05-30T03:19:57.173Z,58.86
2019-05-30T03:20:57.177Z,59.57
2019-05-30T03:21:57.153Z,58.22
2019-05-30T03:22:57.153Z,57.40
2019-05-30T03:23:57.121Z,57.60
2019-05-30T03:24:57.117Z,57.09
2019-05-30T03:25:57.116Z,58.93
2019-05-30T03:26:57.114Z,57.91
2019-05-30T03:27:57.120Z,57.40
2019-05-30T03:28:57.080Z,56.68
2019-05-30T03:29:57.063Z,57.43
2019-05-30T03:30:57.051Z,57.93
2019-05-30T03:31:57.043Z,58.98
2019-05-30T03:33:07.412Z,57.56
2019-05-30T03:33:58.009Z,59.39
2019-05-30T03:34:57.030Z,59.12
2019-05-30T03:35:56.993Z,61.26
2019-05-30T03:36:56.985Z,59.39
2019-05-30T03:37:56.995Z,59.57
2019-05-30T03:38:56.961Z,58.89
2019-05-30T03:39:56.958Z,57.93
2019-05-30T03:40:56.967Z,57.43
2019-05-30T03:41:56.929Z,57.76
2019-05-30T03:42:56.917Z,57.97
2019-05-30T03:43:56.902Z,57.66
2019-05-30T03:44:56.895Z,58.89
2019-05-30T03:45:56.906Z,58.91
2019-05-30T03:46:56.877Z,58.48
2019-05-30T03:47:56.862Z,57.97
2019-05-30T03:48:56.867Z,60.21
2019-05-30T03:49:56.836Z,60.11
2019-05-30T03:50:56.852Z,58.68
2019-05-30T03:51:56.841Z,59.09
2019-05-30T03:52:56.806Z,57.93
2019-05-30T03:53:56.817Z,58.07
2019-05-30T03:54:56.811Z,58.17
2019-05-30T03:55:56.778Z,59.19
2019-05-30T03:56:56.794Z,59.16
2019-05-30T03:57:56.761Z,58.17
2019-05-30T03:58:56.742Z,59.19
2019-05-30T03:59:56.727Z,59.37
2019-05-30T04:00:56.721Z,57.84
2019-05-30T04:01:56.709Z,58.25
2019-05-30T04:02:58.883Z,57.32
2019-05-30T04:03:56.686Z,57.93
2019-05-30T04:04:56.676Z,58.78
2019-05-30T04:05:56.677Z,58.78
2019-05-30T04:06:56.669Z,59.06
2019-05-30T04:07:56.644Z,59.06
2019-05-30T04:08:56.639Z,57.93
2019-05-30T04:09:56.617Z,58.75
2019-05-30T04:10:56.639Z,58.45
2019-05-30T04:11:56.621Z,58.65
2019-05-30T04:12:56.589Z,58.14
2019-05-30T04:13:56.585Z,58.86
2019-05-30T04:14:56.576Z,57.70
2019-05-30T04:15:56.555Z,57.50
2019-05-30T04:16:56.548Z,57.40
2019-05-30T04:17:56.532Z,58.62
2019-05-30T04:18:56.659Z,57.29
2019-05-30T04:19:56.579Z,57.40
2019-05-30T04:20:56.497Z,59.03
2019-05-30T04:21:56.483Z,56.99
2019-05-30T04:22:56.477Z,57.70
2019-05-30T04:23:56.472Z,57.12
2019-05-30T04:24:56.461Z,57.73
2019-05-30T04:26:00.363Z,58.25
2019-05-30T04:26:56.431Z,58.14
2019-05-30T04:27:56.415Z,58.04
2019-05-30T04:28:56.417Z,59.16
2019-05-30T04:29:56.407Z,57.97
2019-05-30T04:30:56.390Z,58.04
2019-05-30T04:31:56.376Z,58.45
2019-05-30T04:33:16.068Z,57.66
2019-05-30T04:33:57.355Z,58.04
2019-05-30T04:34:56.348Z,58.55
2019-05-30T04:35:56.329Z,58.34
2019-05-30T04:36:56.322Z,59.78
2019-05-30T04:37:56.311Z,58.86
2019-05-30T04:38:56.292Z,57.32
2019-05-30T04:39:56.296Z,58.04
2019-05-30T04:40:56.279Z,58.34
2019-05-30T04:41:56.267Z,57.63
2019-05-30T04:42:56.274Z,57.56
2019-05-30T04:43:56.243Z,57.93
2019-05-30T04:44:56.241Z,59.37
2019-05-30T04:45:56.230Z,58.14
2019-05-30T04:46:56.204Z,59.27
2019-05-30T04:47:56.203Z,59.23
2019-05-30T04:48:56.187Z,57.20
2019-05-30T04:49:56.183Z,57.91
2019-05-30T04:50:56.161Z,57.50
2019-05-30T04:51:56.158Z,57.60
2019-05-30T04:52:56.173Z,57.81
2019-05-30T04:53:56.164Z,57.70
2019-05-30T04:54:56.122Z,58.11
2019-05-30T04:55:56.112Z,58.11
2019-05-30T04:56:56.111Z,57.70
2019-05-30T04:57:56.089Z,57.70
2019-05-30T04:58:56.087Z,58.22
2019-05-30T04:59:56.061Z,57.48
2019-05-30T05:00:56.052Z,58.19
2019-05-30T05:01:56.056Z,57.78
2019-05-30T05:02:56.046Z,56.86
2019-05-30T05:03:56.022Z,56.35
2019-05-30T05:04:56.010Z,56.12
2019-05-30T05:05:56.035Z,56.04
2019-05-30T05:06:55.994Z,56.25
2019-05-30T05:07:55.984Z,56.63
2019-05-30T05:08:55.965Z,56.66
2019-05-30T05:09:55.966Z,56.84
2019-05-30T05:10:55.948Z,55.91
2019-05-30T05:11:55.928Z,56.23
2019-05-30T05:12:55.921Z,56.53
2019-05-30T05:13:55.939Z,55.41
2019-05-30T05:14:55.901Z,55.58
2019-05-30T05:15:55.901Z,55.99
2019-05-30T05:16:55.871Z,55.28
2019-05-30T05:17:55.876Z,55.58
2019-05-30T05:18:55.875Z,55.07
2019-05-30T05:19:55.861Z,54.97
2019-05-30T05:20:55.837Z,55.38
2019-05-30T05:21:55.841Z,55.38
2019-05-30T05:22:55.814Z,55.48
2019-05-30T05:23:55.802Z,55.38
2019-05-30T05:24:55.792Z,57.21
2019-05-30T05:26:00.989Z,55.07
2019-05-30T05:26:56.778Z,55.38
2019-05-30T05:27:55.778Z,55.28
2019-05-30T05:28:55.742Z,56.20
2019-05-30T05:29:55.737Z,55.05
2019-05-30T05:30:55.729Z,54.54
2019-05-30T05:31:55.703Z,55.05
2019-05-30T05:32:55.702Z,55.05
2019-05-30T05:33:57.345Z,55.26
2019-05-30T05:34:55.670Z,55.97
2019-05-30T05:35:55.660Z,54.74
2019-05-30T05:36:55.673Z,54.74
2019-05-30T05:37:55.649Z,54.54
2019-05-30T05:38:55.649Z,55.02
2019-05-30T05:39:55.614Z,54.92
2019-05-30T05:40:55.612Z,53.90
2019-05-30T05:41:55.609Z,54.41
2019-05-30T05:42:55.588Z,54.28
2019-05-30T05:43:55.612Z,54.11
2019-05-30T05:44:55.586Z,54.08
2019-05-30T05:45:55.552Z,54.08
2019-05-30T05:46:55.540Z,54.39
2019-05-30T05:47:55.547Z,53.67
2019-05-30T05:48:55.514Z,54.08
2019-05-30T05:49:55.646Z,54.77
2019-05-30T05:50:55.519Z,53.65
2019-05-30T05:51:55.482Z,53.44
2019-05-30T05:52:55.498Z,53.24
2019-05-30T05:53:55.473Z,53.52
2019-05-30T05:54:55.457Z,54.16
2019-05-30T05:55:55.451Z,53.22
2019-05-30T05:56:55.431Z,53.02
2019-05-30T05:57:55.478Z,52.40
2019-05-30T05:58:55.459Z,52.71
2019-05-30T05:59:55.397Z,51.79
2019-05-30T06:00:56.427Z,51.89
2019-05-30T06:01:55.391Z,52.20
2019-05-30T06:02:55.357Z,52.00
2019-05-30T06:03:55.358Z,51.79
2019-05-30T06:04:55.346Z,52.00
2019-05-30T06:05:55.356Z,51.79
2019-05-30T06:06:55.342Z,51.39
2019-05-30T06:07:55.347Z,51.56
2019-05-30T06:08:55.302Z,52.68
2019-05-30T06:09:55.299Z,52.98
2019-05-30T06:10:55.289Z,51.77
2019-05-30T06:11:55.257Z,51.67
2019-05-30T06:12:55.307Z,51.77
2019-05-30T06:13:55.238Z,51.87
2019-05-30T06:14:55.225Z,51.87
2019-05-30T06:15:55.225Z,51.87
2019-05-30T06:16:56.001Z,52.68
2019-05-30T06:17:55.207Z,51.64
2019-05-30T06:18:55.175Z,51.84
2019-05-30T06:19:55.167Z,53.55
2019-05-30T06:20:55.161Z,51.62
2019-05-30T06:21:55.153Z,52.12
2019-05-30T06:22:55.141Z,50.90
2019-05-30T06:23:55.135Z,50.78
2019-05-30T06:24:55.113Z,51.18
2019-05-30T06:25:55.095Z,51.79
2019-05-30T06:26:55.103Z,51.06
2019-05-30T06:27:55.095Z,50.76
2019-05-30T06:28:55.077Z,50.25
2019-05-30T06:29:55.058Z,50.35
2019-05-30T06:30:58.736Z,51.26
2019-05-30T06:31:55.039Z,49.84
2019-05-30T06:32:55.057Z,49.74
2019-05-30T06:33:55.073Z,48.83
2019-05-30T06:34:55.041Z,49.13
2019-05-30T06:35:54.985Z,49.64
2019-05-30T06:36:54.973Z,49.13
2019-05-30T06:37:54.970Z,50.25
2019-05-30T06:38:54.995Z,50.35
2019-05-30T06:39:54.962Z,49.72
2019-05-30T06:40:54.956Z,48.80
2019-05-30T06:41:54.922Z,48.91
2019-05-30T06:42:54.903Z,49.41
2019-05-30T06:43:54.918Z,48.71
2019-05-30T06:44:54.907Z,48.71
2019-05-30T06:45:54.884Z,48.40
2019-05-30T06:46:54.877Z,49.21
2019-05-30T06:47:54.852Z,48.60
2019-05-30T06:48:54.847Z,48.10
2019-05-30T06:49:54.834Z,48.38
2019-05-30T06:50:54.855Z,48.40
2019-05-30T06:51:54.919Z,48.46
2019-05-30T06:52:54.795Z,47.02
2019-05-30T06:53:54.790Z,45.98
2019-05-30T06:54:54.777Z,45.23
2019-05-30T06:55:54.783Z,43.77
2019-05-30T06:56:54.771Z,43.10
2019-05-30T06:57:54.751Z,41.42
2019-05-30T06:58:54.734Z,39.78
2019-05-30T06:59:54.727Z,39.78
2019-05-30T07:00:54.755Z,40.30
2019-05-30T07:01:54.724Z,40.01
2019-05-30T07:02:54.795Z,41.85
2019-05-30T07:03:54.834Z,42.47
2019-05-30T07:04:55.279Z,42.49
2019-05-30T07:05:55.311Z,42.61
2019-05-30T07:06:54.950Z,42.54
2019-05-30T07:07:54.721Z,42.74
2019-05-30T07:08:54.644Z,43.65
2019-05-30T07:09:54.608Z,43.87
2019-05-30T07:10:54.603Z,45.89
2019-05-30T07:11:54.602Z,44.58
2019-05-30T07:12:54.569Z,44.88
2019-05-30T07:13:54.579Z,43.57
2019-05-30T07:14:54.545Z,44.68
2019-05-30T07:15:54.538Z,45.49
2019-05-30T07:16:54.534Z,43.67
2019-05-30T07:17:54.525Z,43.87
2019-05-30T07:18:54.562Z,42.46
2019-05-30T07:19:54.512Z,42.96
2019-05-30T07:20:54.488Z,42.76
2019-05-30T07:21:54.470Z,42.96
2019-05-30T07:22:54.471Z,42.66
2019-05-30T07:23:54.570Z,42.86
2019-05-30T07:24:54.511Z,42.23
2019-05-30T07:25:54.418Z,40.92
2019-05-30T07:26:54.460Z,41.95
2019-05-30T07:27:54.409Z,41.95
2019-05-30T07:28:54.406Z,40.53
2019-05-30T07:29:54.419Z,41.14
2019-05-30T07:30:54.450Z,40.64
2019-05-30T07:31:54.451Z,40.33
2019-05-30T07:32:54.351Z,40.03
2019-05-30T07:33:54.355Z,40.33
2019-05-30T07:35:06.062Z,40.33
2019-05-30T07:35:55.303Z,40.23
2019-05-30T07:36:54.355Z,40.23
2019-05-30T07:37:54.314Z,39.30
2019-05-30T07:38:54.294Z,40.11
2019-05-30T07:39:54.294Z,39.81
2019-05-30T07:40:54.274Z,39.28
2019-05-30T07:42:05.723Z,39.40
2019-05-30T07:42:55.283Z,40.09
2019-05-30T07:43:54.239Z,39.28
2019-05-30T07:44:54.223Z,39.99
2019-05-30T07:45:58.159Z,39.79
2019-05-30T07:46:54.245Z,39.79
2019-05-30T07:47:54.211Z,40.19
2019-05-30T07:48:54.158Z,39.87
2019-05-30T07:49:54.183Z,39.77
2019-05-30T07:50:54.152Z,40.08
2019-05-30T07:51:54.158Z,39.37
2019-05-30T07:52:54.150Z,39.57
2019-05-30T07:53:54.108Z,39.25
2019-05-30T07:54:54.116Z,38.26
2019-05-30T07:55:54.087Z,38.84
2019-05-30T07:56:54.081Z,38.84
2019-05-30T07:57:54.081Z,38.64
2019-05-30T07:58:54.074Z,38.64
2019-05-30T07:59:54.077Z,38.95
2019-05-30T08:00:54.075Z,38.02
2019-05-30T08:01:54.030Z,37.51
2019-05-30T08:02:54.023Z,37.71
2019-05-30T08:03:54.004Z,38.73
2019-05-30T08:04:54.003Z,37.92
2019-05-30T08:05:53.999Z,37.51
2019-05-30T08:06:53.967Z,38.22
2019-05-30T08:07:53.954Z,37.71
2019-05-30T08:08:53.962Z,38.32
2019-05-30T08:09:53.987Z,39.73
2019-05-30T08:11:08.449Z,38.10
2019-05-30T08:11:54.947Z,36.89
2019-05-30T08:12:53.919Z,38.00
2019-05-30T08:13:53.903Z,38.20
2019-05-30T08:14:53.893Z,38.40
2019-05-30T08:15:53.884Z,38.18
2019-05-30T08:16:53.843Z,37.68
2019-05-30T08:17:53.836Z,36.77
2019-05-30T08:18:53.859Z,36.77
2019-05-30T08:20:00.983Z,36.77
2019-05-30T08:21:36.355Z,37.88
2019-05-30T08:22:36.230Z,36.77
2019-05-30T08:23:36.315Z,36.17
2019-05-30T08:24:36.488Z,36.98
2019-05-30T08:25:36.578Z,36.87
2019-05-30T08:26:36.404Z,37.38
2019-05-30T08:27:36.486Z,36.87
2019-05-30T08:28:36.463Z,36.87
2019-05-30T08:29:36.476Z,36.37
2019-05-30T08:30:36.657Z,36.77
2019-05-30T08:31:36.866Z,37.16
2019-05-30T08:32:36.953Z,37.06
2019-05-30T08:33:35.850Z,36.77
2019-05-30T08:34:36.675Z,37.06
2019-05-30T08:35:45.400Z,36.86
2019-05-30T08:36:37.086Z,36.96
2019-05-30T08:37:37.158Z,36.76
2019-05-30T08:38:35.779Z,36.55
2019-05-30T08:39:35.786Z,37.06
2019-05-30T08:40:35.784Z,36.76
2019-05-30T08:41:35.742Z,36.66
2019-05-30T08:42:35.736Z,37.34
2019-05-30T08:43:35.760Z,36.04
2019-05-30T08:44:35.942Z,36.54
2019-05-30T08:45:36.140Z,36.13
2019-05-30T08:46:35.859Z,36.33
2019-05-30T08:47:36.014Z,36.64
2019-05-30T08:48:36.194Z,36.72
2019-05-30T08:49:36.177Z,36.11
2019-05-30T08:50:36.818Z,36.24
2019-05-30T08:51:36.239Z,36.32
2019-05-30T08:52:36.460Z,36.22
2019-05-30T08:53:36.398Z,36.02
2019-05-30T08:54:36.443Z,35.91
2019-05-30T08:55:36.420Z,36.13
2019-05-30T08:56:36.499Z,35.93
2019-05-30T08:57:36.655Z,36.24
2019-05-30T08:58:36.707Z,35.91
2019-05-30T08:59:36.676Z,35.91
2019-05-30T09:00:35.554Z,36.42
2019-05-30T09:01:35.774Z,37.63
2019-05-30T09:02:36.558Z,36.22
2019-05-30T09:03:35.837Z,35.51
2019-05-30T09:04:35.733Z,35.61
2019-05-30T09:05:35.963Z,35.82
2019-05-30T09:06:35.825Z,35.82
2019-05-30T09:07:36.434Z,35.82
2019-05-30T09:08:35.974Z,35.60
2019-05-30T09:09:36.114Z,35.60
2019-05-30T09:10:35.966Z,35.90
2019-05-30T09:11:35.876Z,35.60
2019-05-30T09:12:37.583Z,35.80
2019-05-30T09:13:35.988Z,35.58
2019-05-30T09:14:37.359Z,35.98
2019-05-30T09:15:37.454Z,35.78
2019-05-30T09:16:35.357Z,35.58
2019-05-30T09:17:35.360Z,35.38
2019-05-30T09:18:36.833Z,35.38
2019-05-30T09:19:35.344Z,36.29
2019-05-30T09:20:35.307Z,35.38
2019-05-30T09:21:35.341Z,35.08
2019-05-30T09:22:35.297Z,35.88
2019-05-30T09:23:35.334Z,35.88
2019-05-30T09:24:35.280Z,35.86
2019-05-30T09:25:35.257Z,35.36
2019-05-30T09:26:35.244Z,35.36
2019-05-30T09:27:35.238Z,35.86
2019-05-30T09:28:35.214Z,35.98
2019-05-30T09:29:35.259Z,34.76
2019-05-30T09:30:35.233Z,35.48
2019-05-30T09:31:35.219Z,35.26
2019-05-30T09:32:35.175Z,35.66
2019-05-30T09:33:35.165Z,35.36
2019-05-30T09:34:35.164Z,35.36
2019-05-30T09:35:35.170Z,36.36
2019-05-30T09:36:35.157Z,35.64
2019-05-30T09:37:35.164Z,35.05
2019-05-30T09:38:35.107Z,34.94
2019-05-30T09:39:35.105Z,34.64
2019-05-30T09:40:35.096Z,35.05
2019-05-30T09:41:35.096Z,33.94
2019-05-30T09:42:35.078Z,34.53
2019-05-30T09:43:35.101Z,33.84
2019-05-30T09:44:36.937Z,34.22
2019-05-30T09:45:35.043Z,34.42
2019-05-30T09:46:35.040Z,33.52
2019-05-30T09:47:35.018Z,33.44
2019-05-30T09:48:35.085Z,34.12
2019-05-30T09:49:35.061Z,33.74
2019-05-30T09:50:34.999Z,33.74
2019-05-30T09:51:34.983Z,34.44
2019-05-30T09:52:34.963Z,34.53
2019-05-30T09:53:34.969Z,34.53
2019-05-30T09:54:34.933Z,34.33
2019-05-30T09:55:34.929Z,36.13
2019-05-30T09:56:34.927Z,36.23
2019-05-30T09:57:34.899Z,35.43
2019-05-30T09:58:34.893Z,34.21
2019-05-30T09:59:34.901Z,33.72
2019-05-30T10:00:34.874Z,35.43
2019-05-30T10:01:34.864Z,34.21
2019-05-30T10:02:34.882Z,33.81
2019-05-30T10:03:34.845Z,33.91
2019-05-30T10:04:34.881Z,34.71
2019-05-30T10:05:34.828Z,33.69
2019-05-30T10:06:34.815Z,33.81
2019-05-30T10:07:34.818Z,33.40
2019-05-30T10:08:34.793Z,32.50
2019-05-30T10:09:34.792Z,33.31
2019-05-30T10:10:34.767Z,33.22
2019-05-30T10:11:34.784Z,33.20
2019-05-30T10:12:34.797Z,33.11
2019-05-30T10:13:34.733Z,33.29
2019-05-30T10:14:34.732Z,33.31
2019-05-30T10:15:34.710Z,32.59
2019-05-30T10:16:34.715Z,33.79
2019-05-30T10:17:34.687Z,33.79
2019-05-30T10:18:34.688Z,33.49
2019-05-30T10:19:34.662Z,33.47
2019-05-30T10:20:34.698Z,33.09
2019-05-30T10:21:34.644Z,32.97
2019-05-30T10:22:34.643Z,33.28
2019-05-30T10:23:34.620Z,33.28
2019-05-30T10:24:34.613Z,32.67
2019-05-30T10:25:34.599Z,32.06
2019-05-30T10:26:34.583Z,31.85
2019-05-30T10:27:34.573Z,34.66
2019-05-30T10:28:34.576Z,31.84
2019-05-30T10:29:34.566Z,32.06
2019-05-30T10:30:34.554Z,32.46
2019-05-30T10:31:34.532Z,32.56
2019-05-30T10:32:34.522Z,31.85
2019-05-30T10:33:34.523Z,31.96
2019-05-30T10:34:34.502Z,31.46
2019-05-30T10:35:34.484Z,31.94
2019-05-30T10:36:43.749Z,34.16
2019-05-30T10:37:35.484Z,30.84
2019-05-30T10:38:34.456Z,31.73
2019-05-30T10:39:34.460Z,30.91
2019-05-30T10:40:34.426Z,30.49
2019-05-30T10:41:34.435Z,30.61
2019-05-30T10:42:34.407Z,30.81
2019-05-30T10:43:34.400Z,30.71
2019-05-30T10:44:34.402Z,29.91
2019-05-30T10:45:34.379Z,30.71
2019-05-30T10:46:34.393Z,30.62
2019-05-30T10:47:34.350Z,31.21
2019-05-30T10:48:34.344Z,32.31
2019-05-30T10:49:35.307Z,30.81
2019-05-30T10:50:34.333Z,30.79
2019-05-30T10:51:34.306Z,29.36
2019-05-30T10:52:34.301Z,29.22
2019-05-30T10:53:37.452Z,27.69
2019-05-30T10:54:34.284Z,27.44
2019-05-30T10:55:34.269Z,25.42
2019-05-30T10:56:34.260Z,25.18
2019-05-30T10:57:34.251Z,24.36
2019-05-30T10:58:34.234Z,24.55
2019-05-30T10:59:34.221Z,24.63
2019-05-30T11:00:34.212Z,24.52
2019-05-30T11:01:34.205Z,22.34
2019-05-30T11:02:34.193Z,22.63
2019-05-30T11:03:34.234Z,22.73
2019-05-30T11:04:34.174Z,23.22
2019-05-30T11:05:34.155Z,23.02
2019-05-30T11:06:34.770Z,22.63
2019-05-30T11:07:34.146Z,22.52
2019-05-30T11:08:34.122Z,22.33
2019-05-30T11:09:34.126Z,22.72
2019-05-30T11:10:34.103Z,22.33
2019-05-30T11:11:34.091Z,22.42
2019-05-30T11:12:34.081Z,22.61
2019-05-30T11:13:34.078Z,22.60
2019-05-30T11:14:34.059Z,22.59
2019-05-30T11:15:34.055Z,22.48
2019-05-30T11:16:34.043Z,21.98
2019-05-30T11:17:34.034Z,21.28
2019-05-30T11:18:34.027Z,21.58
2019-05-30T11:19:34.027Z,21.59
2019-05-30T11:20:33.993Z,21.11
2019-05-30T11:21:33.984Z,21.82
2019-05-30T11:22:33.981Z,22.52
2019-05-30T11:23:33.973Z,24.41
2019-05-30T11:24:33.952Z,22.52
2019-05-30T11:25:33.939Z,22.62
2019-05-30T11:26:33.930Z,23.22
2019-05-30T11:27:33.953Z,23.03
2019-05-30T11:28:33.930Z,22.83
2019-05-30T11:29:33.898Z,22.94
2019-05-30T11:30:33.890Z,23.63
2019-05-30T11:31:33.875Z,23.25
2019-05-30T11:32:33.896Z,24.05
2019-05-30T11:33:33.854Z,24.66
2019-05-30T11:34:33.841Z,23.18
2019-05-30T11:35:33.836Z,24.76
2019-05-30T11:36:33.818Z,24.85
2019-05-30T11:37:33.810Z,24.66
2019-05-30T11:38:33.863Z,25.16
2019-05-30T11:39:33.800Z,24.87
2019-05-30T11:40:33.783Z,25.48
2019-05-30T11:41:33.783Z,25.18
2019-05-30T11:42:33.772Z,24.78
2019-05-30T11:43:33.752Z,26.08
2019-05-30T11:44:33.729Z,24.79
2019-05-30T11:45:33.723Z,25.68
2019-05-30T11:46:33.713Z,25.49
2019-05-30T11:47:33.693Z,25.67
2019-05-30T11:48:33.692Z,25.97
2019-05-30T11:49:33.682Z,24.67
2019-05-30T11:50:33.668Z,25.56
2019-05-30T11:51:33.655Z,24.97
2019-05-30T11:52:33.647Z,25.07
2019-05-30T11:53:33.657Z,25.07
2019-05-30T11:54:33.622Z,24.36
2019-05-30T11:55:33.623Z,25.55
2019-05-30T11:56:33.621Z,24.85
2019-05-30T11:57:33.612Z,24.66
2019-05-30T11:58:33.586Z,26.26
2019-05-30T11:59:33.586Z,24.87
2019-05-30T12:00:33.564Z,24.67
2019-05-30T12:01:33.544Z,24.76
2019-05-30T12:02:33.539Z,24.36
2019-05-30T12:03:33.529Z,24.66
2019-05-30T12:04:33.523Z,24.76
2019-05-30T12:05:33.514Z,26.55
2019-05-30T12:06:33.502Z,25.67
2019-05-30T12:07:36.677Z,26.08
2019-05-30T12:08:33.478Z,26.22
2019-05-30T12:09:33.464Z,28.11
2019-05-30T12:10:33.451Z,26.73
2019-05-30T12:11:33.448Z,27.73
2019-05-30T12:12:33.458Z,26.54
2019-05-30T12:13:33.422Z,27.35
2019-05-30T12:14:33.414Z,26.65
2019-05-30T12:15:33.400Z,26.65
2019-05-30T12:16:33.402Z,27.76
2019-05-30T12:17:33.382Z,27.17
2019-05-30T12:18:33.372Z,28.46
2019-05-30T12:19:33.354Z,28.67
2019-05-30T12:20:33.351Z,27.97
2019-05-30T12:21:33.334Z,27.97
2019-05-30T12:22:33.320Z,28.67
2019-05-30T12:23:33.310Z,29.27
2019-05-30T12:24:33.298Z,27.87
2019-05-30T12:25:33.360Z,28.17
2019-05-30T12:26:34.039Z,27.96
2019-05-30T12:27:33.278Z,27.97
2019-05-30T12:28:33.250Z,28.57
2019-05-30T12:29:33.241Z,28.86
2019-05-30T12:30:33.232Z,27.76
2019-05-30T12:31:33.230Z,28.86
2019-05-30T12:32:33.243Z,28.46
2019-05-30T12:33:33.209Z,27.26
2019-05-30T12:34:33.185Z,27.96
2019-05-30T12:35:33.195Z,27.66
2019-05-30T12:36:33.170Z,29.05
2019-05-30T12:37:33.151Z,27.86
2019-05-30T12:38:33.152Z,28.66
2019-05-30T12:39:33.141Z,30.65
2019-05-30T12:40:33.135Z,27.66
2019-05-30T12:41:33.128Z,27.26
2019-05-30T12:42:33.096Z,28.66
2019-05-30T12:43:33.097Z,27.66
2019-05-30T12:44:33.082Z,27.76
2019-05-30T12:45:33.072Z,27.96
2019-05-30T12:46:33.122Z,27.78
2019-05-30T12:47:33.050Z,27.47
2019-05-30T12:48:33.033Z,28.27
2019-05-30T12:49:33.018Z,28.47
2019-05-30T12:50:33.010Z,27.87
2019-05-30T12:51:32.998Z,28.08
2019-05-30T12:52:33.002Z,28.17
2019-05-30T12:53:32.978Z,28.16
2019-05-30T12:54:32.970Z,27.97